Terminal Aerodrome Forecast
Issued by NWS

Home | Current Version | Previous Version | Text Only | Print | Product List | Glossary On
Versions: 1 2 3 4 5 6 7 8 9 10 11 12 13 14 15 16 17 18 19 20 21 22 23 24 25 26 27 28 29 30 31 32 33 34 35 36 37 38 39 40 41 42 43 44 45 46 47 48 49 50
000
FTUS43 KLOT 130200 AAB
TAFGYY
TAF AMD
KGYY 130233Z 1303/1324 17007KT P6SM -SHRA BKN015 OVC040
     FM130415 23010KT 3SM TSRA BKN015 OVC035CB
      TEMPO 1305/1307 1SM TSRA OVC010CB
     FM130900 30008KT P6SM VCSH BKN020
     FM131300 29009KT P6SM SCT020
     FM131800 28010G17KT P6SM SCT045=

USA.gov is the U.S. government's official web portal to all federal, state and local government web resources and services.